Campanya Meteocatpedra
Centenari de l'SMC: 100 anys mirant el cel

Dades de l'estació automàtica Sant Sadurní d'Anoia

?
?

Resum diari

22:30 TU
Dades diàries de l'estació meteorològica
Temperatura mitjana 25.6 °C
Temperatura màxima 34.2 °C 10:53 TU
Temperatura mínima 17.5 °C 3:32 TU
Humitat relativa mitjana 50%
Precipitació acumulada 0.0 mm
Ratxa màxima del vent (2 m) 25.9 km/h - 94º 11:57 TU
Irradiació solar global 20.4 MJ/m2

El tram horari està expressat en Temps Universal (TU). Cal sumar una hora en horari d'hivern i dues en horari d'estiu per passar a l'hora oficial.

Sant Sadurní d'Anoia

Metadades estació meteorològica
Municipi Sant Sadurní d'Anoia
Comarca Alt Penedès
Altitud 155 m
Data alta 07.05.2021
Estat actual Operativa
Dades de període
Període
TU
TM
°C
TX
°C
TN
°C
HRM
%
PPT
mm
VVM (2 m)
km/h
DVM (2 m)
graus
VVX (2 m)
km/h
RS
W/m2
00:00 - 00:30 19.3 19.6 19.1 73 0.0 1.4 317 4.3 0
00:30 - 01:00 19.4 20.0 18.8 72 0.0 1.1 287 5.0 0
01:00 - 01:30 18.6 18.8 18.2 75 0.0 0.7 278 2.9 0
01:30 - 02:00 18.1 18.2 18.0 77 0.0 0.7 278 3.2 0
02:00 - 02:30 18.3 19.0 17.9 75 0.0 2.9 286 6.1 0
02:30 - 03:00 18.6 19.3 18.1 73 0.0 4.3 307 6.5 0
03:00 - 03:30 17.7 18.2 17.5 76 0.0 0.7 336 3.6 0
03:30 - 04:00 17.6 17.7 17.5 77 0.0 0.0 335 1.1 0
04:00 - 04:30 17.7 17.9 17.7 77 0.0 0.4 335 1.4 2
04:30 - 05:00 18.1 18.3 17.9 75 0.0 1.4 316 3.6 11
05:00 - 05:30 18.3 18.4 18.1 75 0.0 1.1 326 2.9 28
05:30 - 06:00 19.7 20.6 18.4 69 0.0 4.3 299 6.8 106
06:00 - 06:30 21.8 22.6 20.8 62 0.0 4.0 320 9.7 180
06:30 - 07:00 23.2 23.6 22.7 57 0.0 1.8 107 6.5 229
07:00 - 07:30 24.3 24.9 23.7 54 0.0 2.5 91 7.2 334
07:30 - 08:00 26.0 26.8 24.9 49 0.0 2.5 81 7.9 506
08:00 - 08:30 27.3 28.6 26.8 45 0.0 5.0 56 11.2 560
08:30 - 09:00 29.0 30.3 27.9 41 0.0 4.3 25 10.8 680
09:00 - 09:30 30.7 31.3 30.0 36 0.0 5.0 65 11.9 745
09:30 - 10:00 31.5 32.4 30.7 32 0.0 6.5 36 16.6 799
10:00 - 10:30 32.5 33.1 32.2 30 0.0 6.1 341 22.0 836
10:30 - 11:00 33.1 34.2 32.1 29 0.0 6.1 92 15.8 864
11:00 - 11:30 32.9 33.3 32.3 29 0.0 11.5 83 22.7 891
11:30 - 12:00 32.8 33.4 32.2 29 0.0 12.2 101 25.9 652
12:00 - 12:30 32.8 33.3 32.1 28 0.0 11.5 100 21.6 882
12:30 - 13:00 32.5 33.1 32.1 28 0.0 9.4 109 20.9 549
13:00 - 13:30 32.4 32.7 32.1 28 0.0 6.8 132 17.6 461
13:30 - 14:00 32.0 32.3 31.7 29 0.0 6.5 132 15.8 439
14:00 - 14:30 31.6 32.0 31.3 30 0.0 7.2 117 15.1 386
14:30 - 15:00 31.6 31.9 31.3 30 0.0 5.8 136 18.7 325
15:00 - 15:30 30.9 31.5 30.4 32 0.0 5.0 151 17.6 167
15:30 - 16:00 29.3 30.4 28.6 36 0.0 5.0 282 13.0 91
16:00 - 16:30 28.8 29.0 28.6 37 0.0 5.0 89 17.6 100
16:30 - 17:00 28.7 29.1 28.4 40 0.0 6.5 69 13.3 205
17:00 - 17:30 27.8 28.5 27.3 42 0.0 9.0 53 18.0 171
17:30 - 18:00 27.0 27.3 26.7 46 0.0 8.6 71 17.3 115
18:00 - 18:30 26.8 26.9 26.5 47 0.0 3.2 126 11.2 48
18:30 - 19:00 26.3 26.6 25.7 46 0.0 1.8 113 7.9 19
19:00 - 19:30 25.9 26.3 25.2 45 0.0 5.4 70 15.1 5
19:30 - 20:00 25.4 25.8 25.1 47 0.0 11.2 86 23.4 0
20:00 - 20:30 24.8 25.1 24.6 49 0.0 5.8 97 14.4 0
20:30 - 21:00 24.1 24.5 22.9 50 0.0 2.5 342 7.2 0
21:00 - 21:30 22.9 23.3 22.7 57 0.0 3.6 303 7.6 0
21:30 - 22:00 22.7 23.1 22.5 58 0.0 3.6 357 10.4 0
22:00 - 22:30 23.2 23.4 22.9 55 0.0 3.6 3 12.2 0
22:30 - 23:00 22.7 22.8 22.3 58 0.0 4.0 306 9.0 0
23:00 - 23:30 (s/d) (s/d) (s/d) (s/d) (s/d) (s/d) (s/d) (s/d) (s/d)

Les dades en taronja només han passat un control de qualitat automàtic. Resta pendent la seva validació definitiva.